Windsor Mill, Maryland
Current Conditions -  °F | °C
As of 10:54 PM on Thursday 27 Nov 2014 (Local Time) from KBWI Reporting Station
Light Snow Light Snow  
Wind Chill: 28°   Ceiling: 8500
Heat Index: 37°   Visibility: 9mi
Dew Point: 31°   Wind: 14mph
Humidity: 79%   Direction: 280°W
Pressure: 30.15"   Gusts: 20mph
Location:  39.33°N, 76.76°W
Report Text: KBWI 280354Z 28012G17KT 9SM -SN SCT049 OVC085 03/M01 A3015 RMK AO2 SNB50 SLP209 P0000 T00281006
Loading
Personal Weather Stations






























Interactive Weather Map New forecast layout! Learn more

10-Day Weather Forecast

Advertisements
Track Severe Weather on mobile